createdAt,value
2023-05-21T00:00:19.644Z,1021.36
2023-05-21T00:01:19.767Z,1021.32
2023-05-21T00:02:20.177Z,1021.33
2023-05-21T00:03:20.163Z,1021.34
2023-05-21T00:04:20.292Z,1021.35
2023-05-21T00:05:20.457Z,1021.33
2023-05-21T00:06:20.672Z,1021.35
2023-05-21T00:07:20.818Z,1021.34
2023-05-21T00:08:20.991Z,1021.34
2023-05-21T00:09:21.140Z,1021.35
2023-05-21T00:10:21.320Z,1021.31
2023-05-21T00:11:21.494Z,1021.35
2023-05-21T00:12:21.666Z,1021.35
2023-05-21T00:13:21.825Z,1021.29
2023-05-21T00:14:22.004Z,1021.31
2023-05-21T00:15:22.168Z,1021.29
2023-05-21T00:16:22.446Z,1021.29
2023-05-21T00:17:22.514Z,1021.29
2023-05-21T00:18:22.706Z,1021.30
2023-05-21T00:19:22.933Z,1021.29
2023-05-21T00:20:23.054Z,1021.27
2023-05-21T00:21:23.235Z,1021.28
2023-05-21T00:22:23.417Z,1021.32
2023-05-21T00:23:23.616Z,1021.28
2023-05-21T00:24:23.746Z,1021.29
2023-05-21T00:25:24.022Z,1021.31
2023-05-21T00:26:24.127Z,1021.29
2023-05-21T00:27:24.284Z,1021.31
2023-05-21T00:28:24.499Z,1021.33
2023-05-21T00:29:24.656Z,1021.30
2023-05-21T00:30:24.857Z,1021.28
2023-05-21T00:31:25.013Z,1021.29
2023-05-21T00:32:25.213Z,1021.30
2023-05-21T00:33:25.377Z,1021.31
2023-05-21T00:34:25.545Z,1021.30
2023-05-21T00:35:25.697Z,1021.31
2023-05-21T00:36:25.896Z,1021.28
2023-05-21T00:37:26.085Z,1021.30
2023-05-21T00:38:26.250Z,1021.29
2023-05-21T00:39:26.414Z,1021.29
2023-05-21T00:40:26.586Z,1021.31
2023-05-21T00:41:26.771Z,1021.28
2023-05-21T00:42:26.952Z,1021.29
2023-05-21T00:43:27.103Z,1021.30
2023-05-21T00:44:27.283Z,1021.28
2023-05-21T00:45:27.446Z,1021.26
2023-05-21T00:46:27.718Z,1021.25
2023-05-21T00:47:27.805Z,1021.24
2023-05-21T00:48:27.951Z,1021.25
2023-05-21T00:49:28.112Z,1021.24
2023-05-21T00:50:28.312Z,1021.25
2023-05-21T00:51:28.488Z,1021.24
2023-05-21T00:52:28.645Z,1021.21
2023-05-21T00:53:28.820Z,1021.23
2023-05-21T00:54:29.003Z,1021.19
2023-05-21T00:55:29.163Z,1021.18
2023-05-21T00:56:29.363Z,1021.17
2023-05-21T00:57:29.518Z,1021.15
2023-05-21T00:58:29.693Z,1021.15
2023-05-21T00:59:29.887Z,1021.15
2023-05-21T01:00:30.041Z,1021.16
2023-05-21T01:01:30.293Z,1021.11
2023-05-21T01:02:30.460Z,1021.14
2023-05-21T01:03:30.758Z,1021.14
2023-05-21T01:04:30.758Z,1021.12
2023-05-21T01:05:30.929Z,1021.10
2023-05-21T01:06:31.096Z,1021.08
2023-05-21T01:07:31.275Z,1021.08
2023-05-21T01:08:31.445Z,1021.06
2023-05-21T01:09:31.646Z,1021.05
2023-05-21T01:10:31.803Z,1021.02
2023-05-21T01:11:31.959Z,1021.03
2023-05-21T01:12:32.157Z,1021.03
2023-05-21T01:13:32.311Z,1021.03
2023-05-21T01:14:32.498Z,1020.99
2023-05-21T01:15:32.690Z,1020.99
2023-05-21T01:16:32.900Z,1020.96
2023-05-21T01:17:33.025Z,1020.98
2023-05-21T01:18:33.192Z,1020.94
2023-05-21T01:19:33.354Z,1020.91
2023-05-21T01:20:33.497Z,1020.91
2023-05-21T01:21:33.647Z,1020.91
2023-05-21T01:22:33.818Z,1020.91
2023-05-21T01:23:33.993Z,1020.88
2023-05-21T01:24:34.169Z,1020.88
2023-05-21T01:25:34.599Z,1020.87
2023-05-21T01:26:34.497Z,1020.89
2023-05-21T01:27:34.662Z,1020.87
2023-05-21T01:28:34.867Z,1020.90
2023-05-21T01:29:35.034Z,1020.93
2023-05-21T01:30:35.205Z,1020.95
2023-05-21T01:31:35.375Z,1020.89
2023-05-21T01:32:35.611Z,1020.92
2023-05-21T01:33:35.774Z,1020.89
2023-05-21T01:34:35.903Z,1020.89
2023-05-21T01:35:36.323Z,1020.87
2023-05-21T01:36:36.280Z,1020.88
2023-05-21T01:37:36.455Z,1020.86
2023-05-21T01:38:36.610Z,1020.87
2023-05-21T01:39:36.806Z,1020.90
2023-05-21T01:40:36.985Z,1020.87
2023-05-21T01:41:37.181Z,1020.90
2023-05-21T01:42:37.385Z,1020.85
2023-05-21T01:43:37.554Z,1020.88
2023-05-21T01:44:37.724Z,1020.84
2023-05-21T01:45:37.986Z,1020.86
2023-05-21T01:46:38.090Z,1020.84
2023-05-21T01:47:38.280Z,1020.87
2023-05-21T01:48:38.396Z,1020.86
2023-05-21T01:49:38.578Z,1020.88
2023-05-21T01:50:38.749Z,1020.84
2023-05-21T01:51:38.923Z,1020.86
2023-05-21T01:52:39.115Z,1020.87
2023-05-21T01:53:39.286Z,1020.83
2023-05-21T01:54:39.440Z,1020.84
2023-05-21T01:55:39.667Z,1020.89
2023-05-21T01:56:39.794Z,1020.85
2023-05-21T01:57:39.975Z,1020.87
2023-05-21T01:58:40.139Z,1020.82
2023-05-21T01:59:40.331Z,1020.84
2023-05-21T02:00:40.506Z,1020.83
2023-05-21T02:01:40.746Z,1020.83
2023-05-21T02:02:40.932Z,1020.82
2023-05-21T02:03:41.115Z,1020.83
2023-05-21T02:04:41.202Z,1020.82
2023-05-21T02:05:41.381Z,1020.82
2023-05-21T02:06:41.553Z,1020.84
2023-05-21T02:07:41.714Z,1020.87
2023-05-21T02:08:41.869Z,1020.82
2023-05-21T02:09:42.063Z,1020.85
2023-05-21T02:10:42.253Z,1020.80
2023-05-21T02:11:42.409Z,1020.83
2023-05-21T02:12:42.563Z,1020.83
2023-05-21T02:13:42.818Z,1020.80
2023-05-21T02:14:42.939Z,1020.76
2023-05-21T02:15:43.106Z,1020.77
2023-05-21T02:16:43.477Z,1020.72
2023-05-21T02:17:43.458Z,1020.70
2023-05-21T02:18:43.728Z,1020.73
2023-05-21T02:19:43.800Z,1020.73
2023-05-21T02:20:43.991Z,1020.71
2023-05-21T02:21:44.173Z,1020.70
2023-05-21T02:22:44.353Z,1020.70
2023-05-21T02:23:44.503Z,1020.68
2023-05-21T02:24:44.712Z,1020.63
2023-05-21T02:25:44.904Z,1020.64
2023-05-21T02:26:45.094Z,1020.65
2023-05-21T02:27:45.244Z,1020.62
2023-05-21T02:28:45.403Z,1020.60
2023-05-21T02:29:45.631Z,1020.63
2023-05-21T02:30:45.785Z,1020.62
2023-05-21T02:31:45.989Z,1020.62
2023-05-21T02:32:46.183Z,1020.64
2023-05-21T02:33:46.396Z,1020.65
2023-05-21T02:34:46.507Z,1020.65
2023-05-21T02:35:46.684Z,1020.66
2023-05-21T02:36:46.836Z,1020.65
2023-05-21T02:37:47.033Z,1020.66
2023-05-21T02:38:47.195Z,1020.63
2023-05-21T02:39:47.377Z,1020.65
2023-05-21T02:40:47.535Z,1020.65
2023-05-21T02:41:47.747Z,1020.63
2023-05-21T02:42:47.898Z,1020.65
2023-05-21T02:43:48.092Z,1020.61
2023-05-21T02:44:48.261Z,1020.63
2023-05-21T02:45:48.496Z,1020.59
2023-05-21T02:46:48.604Z,1020.61
2023-05-21T02:47:48.817Z,1020.64
2023-05-21T02:48:48.953Z,1020.61
2023-05-21T02:49:49.109Z,1020.59
2023-05-21T02:50:49.300Z,1020.58
2023-05-21T02:51:49.486Z,1020.55
2023-05-21T02:52:49.656Z,1020.58
2023-05-21T02:53:49.829Z,1020.55
2023-05-21T02:54:49.997Z,1020.59
2023-05-21T02:55:50.187Z,1020.56
2023-05-21T02:56:50.364Z,1020.60
2023-05-21T02:57:50.555Z,1020.54
2023-05-21T02:58:50.688Z,1020.56
2023-05-21T02:59:50.861Z,1020.57
2023-05-21T03:00:51.023Z,1020.55
2023-05-21T03:01:51.298Z,1020.53
2023-05-21T03:02:51.496Z,1020.53
2023-05-21T03:03:51.592Z,1020.54
2023-05-21T03:04:51.800Z,1020.54
2023-05-21T03:05:51.923Z,1020.54
2023-05-21T03:06:52.114Z,1020.54
2023-05-21T03:07:52.317Z,1020.54
2023-05-21T03:08:52.462Z,1020.55
2023-05-21T03:09:52.639Z,1020.55
2023-05-21T03:10:52.809Z,1020.53
2023-05-21T03:11:53.016Z,1020.47
2023-05-21T03:12:53.176Z,1020.52
2023-05-21T03:13:53.319Z,1020.47
2023-05-21T03:14:53.496Z,1020.47
2023-05-21T03:15:53.680Z,1020.45
2023-05-21T03:16:53.882Z,1020.47
2023-05-21T03:17:54.270Z,1020.47
2023-05-21T03:18:54.233Z,1020.48
2023-05-21T03:19:54.362Z,1020.45
2023-05-21T03:20:54.513Z,1020.47
2023-05-21T03:21:54.759Z,1020.47
2023-05-21T03:22:54.862Z,1020.48
2023-05-21T03:23:55.049Z,1020.46
2023-05-21T03:24:55.206Z,1020.45
2023-05-21T03:25:55.395Z,1020.51
2023-05-21T03:26:55.568Z,1020.54
2023-05-21T03:27:55.726Z,1020.53
2023-05-21T03:28:55.893Z,1020.50
2023-05-21T03:29:56.076Z,1020.53
2023-05-21T03:30:56.242Z,1020.53
2023-05-21T03:31:56.454Z,1020.55
2023-05-21T03:32:56.632Z,1020.50
2023-05-21T03:33:56.734Z,1020.56
2023-05-21T03:34:56.928Z,1020.56
2023-05-21T03:35:57.102Z,1020.50
2023-05-21T03:36:57.266Z,1020.52
2023-05-21T03:37:57.447Z,1020.49
2023-05-21T03:38:57.599Z,1020.48
2023-05-21T03:39:57.792Z,1020.50
2023-05-21T03:40:57.973Z,1020.50
2023-05-21T03:41:58.135Z,1020.52
2023-05-21T03:42:58.287Z,1020.56
2023-05-21T03:43:58.463Z,1020.56
2023-05-21T03:44:58.655Z,1020.59
2023-05-21T03:45:58.894Z,1020.61
2023-05-21T03:46:58.998Z,1020.61
2023-05-21T03:47:59.224Z,1020.61
2023-05-21T03:48:59.354Z,1020.56
2023-05-21T03:49:59.557Z,1020.61
2023-05-21T03:50:59.698Z,1020.59
2023-05-21T03:51:59.904Z,1020.62
2023-05-21T03:53:00.053Z,1020.60
2023-05-21T03:54:00.281Z,1020.57
2023-05-21T03:55:00.425Z,1020.56
2023-05-21T03:56:00.552Z,1020.55
2023-05-21T03:57:00.741Z,1020.54
2023-05-21T03:58:00.899Z,1020.53
2023-05-21T03:59:01.094Z,1020.53
2023-05-21T04:00:01.282Z,1020.52
2023-05-21T04:01:01.428Z,1020.53
2023-05-21T04:02:01.613Z,1020.54
2023-05-21T04:03:01.944Z,1020.56
2023-05-21T04:04:02.050Z,1020.56
2023-05-21T04:05:02.138Z,1020.60
2023-05-21T04:06:02.333Z,1020.57
2023-05-21T04:07:02.498Z,1020.58
2023-05-21T04:08:02.695Z,1020.62
2023-05-21T04:09:02.851Z,1020.60
2023-05-21T04:10:03.035Z,1020.63
2023-05-21T04:11:03.231Z,1020.58
2023-05-21T04:12:03.438Z,1020.60
2023-05-21T04:13:03.575Z,1020.57
2023-05-21T04:14:03.770Z,1020.55
2023-05-21T04:15:03.908Z,1020.57
2023-05-21T04:16:04.103Z,1020.57
2023-05-21T04:17:04.276Z,1020.59
2023-05-21T04:18:04.499Z,1020.59
2023-05-21T04:19:04.653Z,1020.62
2023-05-21T04:20:04.819Z,1020.58
2023-05-21T04:21:05.023Z,1020.55
2023-05-21T04:22:05.182Z,1020.59
2023-05-21T04:23:05.347Z,1020.60
2023-05-21T04:24:05.518Z,1020.58
2023-05-21T04:25:05.702Z,1020.55
2023-05-21T04:26:05.886Z,1020.56
2023-05-21T04:27:06.082Z,1020.58
2023-05-21T04:28:06.278Z,1020.58
2023-05-21T04:29:06.428Z,1020.58
2023-05-21T04:30:06.619Z,1020.61
2023-05-21T04:31:06.812Z,1020.60
2023-05-21T04:32:06.993Z,1020.60
2023-05-21T04:33:07.214Z,1020.62
2023-05-21T04:34:07.311Z,1020.63
2023-05-21T04:35:07.517Z,1020.59
2023-05-21T04:36:07.673Z,1020.58
2023-05-21T04:37:07.829Z,1020.62
2023-05-21T04:38:08.010Z,1020.68
2023-05-21T04:39:08.192Z,1020.66
2023-05-21T04:40:08.383Z,1020.65
2023-05-21T04:41:08.534Z,1020.62
2023-05-21T04:42:08.708Z,1020.63
2023-05-21T04:43:08.896Z,1020.70
2023-05-21T04:44:09.071Z,1020.63
2023-05-21T04:45:09.237Z,1020.63
2023-05-21T04:46:09.453Z,1020.62
2023-05-21T04:47:09.660Z,1020.60
2023-05-21T04:48:09.764Z,1020.60
2023-05-21T04:49:09.968Z,1020.61
2023-05-21T04:50:10.198Z,1020.65
2023-05-21T04:51:10.320Z,1020.67
2023-05-21T04:52:10.492Z,1020.64
2023-05-21T04:53:10.663Z,1020.64
2023-05-21T04:54:10.853Z,1020.67
2023-05-21T04:55:11.032Z,1020.65
2023-05-21T04:56:11.211Z,1020.72
2023-05-21T04:57:11.378Z,1020.66
2023-05-21T04:58:11.575Z,1020.66
2023-05-21T04:59:11.733Z,1020.66
2023-05-21T05:00:11.934Z,1020.61
2023-05-21T05:01:12.127Z,1020.63
2023-05-21T05:02:12.223Z,1020.67
2023-05-21T05:03:12.458Z,1020.69
2023-05-21T05:04:12.599Z,1020.70
2023-05-21T05:05:12.782Z,1020.64
2023-05-21T05:06:12.947Z,1020.65
2023-05-21T05:07:13.121Z,1020.65
2023-05-21T05:08:15.753Z,1020.71
2023-05-21T05:09:13.473Z,1020.60
2023-05-21T05:10:13.688Z,1020.63
2023-05-21T05:11:13.819Z,1020.66
2023-05-21T05:12:14.011Z,1020.67
2023-05-21T05:13:14.181Z,1020.67
2023-05-21T05:14:14.372Z,1020.69
2023-05-21T05:15:14.550Z,1020.63
2023-05-21T05:16:14.738Z,1020.67
2023-05-21T05:17:14.941Z,1020.70
2023-05-21T05:18:15.081Z,1020.66
2023-05-21T05:19:15.335Z,1020.71
2023-05-21T05:20:15.443Z,1020.64
2023-05-21T05:21:15.585Z,1020.61
2023-05-21T05:22:15.770Z,1020.63
2023-05-21T05:23:15.928Z,1020.60
2023-05-21T05:24:16.148Z,1020.61
2023-05-21T05:25:16.271Z,1020.63
2023-05-21T05:26:16.441Z,1020.63
2023-05-21T05:27:16.616Z,1020.58
2023-05-21T05:28:16.806Z,1020.55
2023-05-21T05:29:16.983Z,1020.56
2023-05-21T05:30:17.156Z,1020.55
2023-05-21T05:31:17.363Z,1020.58
2023-05-21T05:32:17.515Z,1020.59
2023-05-21T05:33:17.695Z,1020.57
2023-05-21T05:34:17.872Z,1020.54
2023-05-21T05:35:18.047Z,1020.57
2023-05-21T05:36:18.235Z,1020.56
2023-05-21T05:37:18.395Z,1020.63
2023-05-21T05:38:18.570Z,1020.62
2023-05-21T05:39:18.707Z,1020.62
2023-05-21T05:40:18.877Z,1020.61
2023-05-21T05:41:19.130Z,1020.62
2023-05-21T05:42:19.239Z,1020.58
2023-05-21T05:43:19.416Z,1020.62
2023-05-21T05:44:19.591Z,1020.62
2023-05-21T05:45:19.817Z,1020.58
2023-05-21T05:46:19.998Z,1020.64
2023-05-21T05:47:20.154Z,1020.60
2023-05-21T05:48:20.306Z,1020.58
2023-05-21T05:49:20.486Z,1020.58
2023-05-21T05:50:20.666Z,1020.57
2023-05-21T05:51:20.848Z,1020.66
2023-05-21T05:52:21.043Z,1020.61
2023-05-21T05:53:21.217Z,1020.62
2023-05-21T05:54:21.367Z,1020.59
2023-05-21T05:55:21.540Z,1020.55
2023-05-21T05:56:21.729Z,1020.56
2023-05-21T05:57:21.906Z,1020.57
2023-05-21T05:58:22.085Z,1020.57
2023-05-21T05:59:22.257Z,1020.59
2023-05-21T06:00:22.444Z,1020.55
2023-05-21T06:01:22.681Z,1020.56
2023-05-21T06:02:22.890Z,1020.57
2023-05-21T06:03:23.107Z,1020.55
2023-05-21T06:04:23.157Z,1020.55
2023-05-21T06:05:23.374Z,1020.55
2023-05-21T06:06:23.599Z,1020.54
2023-05-21T06:07:23.734Z,1020.58
2023-05-21T06:08:23.868Z,1020.55
2023-05-21T06:09:24.058Z,1020.55
2023-05-21T06:10:24.227Z,1020.54
2023-05-21T06:11:24.419Z,1020.55
2023-05-21T06:12:24.562Z,1020.54
2023-05-21T06:13:24.753Z,1020.56
2023-05-21T06:14:24.910Z,1020.52
2023-05-21T06:15:25.075Z,1020.52
2023-05-21T06:16:25.264Z,1020.51
2023-05-21T06:17:25.430Z,1020.49
2023-05-21T06:18:25.578Z,1020.49
2023-05-21T06:19:25.863Z,1020.46
2023-05-21T06:20:25.961Z,1020.45
2023-05-21T06:21:26.144Z,1020.41
2023-05-21T06:22:26.293Z,1020.48
2023-05-21T06:23:26.485Z,1020.49
2023-05-21T06:24:26.655Z,1020.49
2023-05-21T06:25:26.852Z,1020.43
2023-05-21T06:26:27.003Z,1020.46
2023-05-21T06:27:27.185Z,1020.36
2023-05-21T06:28:27.351Z,1020.35
2023-05-21T06:29:27.599Z,1020.37
2023-05-21T06:30:27.804Z,1020.40
2023-05-21T06:31:27.898Z,1020.42
2023-05-21T06:32:28.175Z,1020.40
2023-05-21T06:33:28.324Z,1020.42
2023-05-21T06:34:28.401Z,1020.39
2023-05-21T06:35:28.607Z,1020.37
2023-05-21T06:36:28.761Z,1020.39
2023-05-21T06:37:28.942Z,1020.40
2023-05-21T06:38:29.132Z,1020.33
2023-05-21T06:39:29.339Z,1020.39
2023-05-21T06:40:29.536Z,1020.32
2023-05-21T06:41:29.657Z,1020.35
2023-05-21T06:42:29.832Z,1020.30
2023-05-21T06:43:30.005Z,1020.31
2023-05-21T06:44:30.200Z,1020.31
2023-05-21T06:45:30.395Z,1020.29
2023-05-21T06:46:30.594Z,1020.27
2023-05-21T06:47:30.764Z,1020.24
2023-05-21T06:48:30.874Z,1020.28
2023-05-21T06:49:31.074Z,1020.26
2023-05-21T06:50:31.227Z,1020.27
2023-05-21T06:51:31.398Z,1020.28
2023-05-21T06:52:31.562Z,1020.26
2023-05-21T06:53:31.746Z,1020.26
2023-05-21T06:54:31.916Z,1020.21
2023-05-21T06:55:32.088Z,1020.13
2023-05-21T06:56:32.273Z,1020.18
2023-05-21T06:57:32.463Z,1020.15
2023-05-21T06:58:32.628Z,1020.17
2023-05-21T06:59:32.784Z,1020.13
2023-05-21T07:00:32.968Z,1020.18
2023-05-21T07:01:33.254Z,1020.13
2023-05-21T07:02:33.427Z,1020.10
2023-05-21T07:03:33.531Z,1020.10
2023-05-21T07:04:33.656Z,1020.10
2023-05-21T07:05:33.900Z,1020.10
2023-05-21T07:06:34.036Z,1020.06
2023-05-21T07:07:34.227Z,1020.07
2023-05-21T07:08:34.360Z,1020.10
2023-05-21T07:09:34.556Z,1020.09
2023-05-21T07:10:34.740Z,1020.12
2023-05-21T07:11:34.922Z,1020.04
2023-05-21T07:12:35.096Z,1020.03
2023-05-21T07:13:35.276Z,1020.02
2023-05-21T07:14:35.462Z,1020.06
2023-05-21T07:15:35.835Z,1020.06
2023-05-21T07:16:35.845Z,1020.05
2023-05-21T07:17:36.083Z,1020.04
2023-05-21T07:18:36.189Z,1020.04
2023-05-21T07:19:36.350Z,1019.97
2023-05-21T07:20:36.539Z,1019.97
2023-05-21T07:21:36.743Z,1019.95
2023-05-21T07:22:36.886Z,1019.94
2023-05-21T07:23:37.069Z,1019.98
2023-05-21T07:24:37.258Z,1020.01
2023-05-21T07:25:37.699Z,1020.01
2023-05-21T07:26:37.627Z,1019.99
2023-05-21T07:27:37.767Z,1020.04
2023-05-21T07:28:37.949Z,1019.99
2023-05-21T07:29:38.129Z,1019.94
2023-05-21T07:30:38.324Z,1019.93
2023-05-21T07:31:38.546Z,1019.94
2023-05-21T07:32:38.703Z,1019.93
2023-05-21T07:33:38.857Z,1019.92
2023-05-21T07:34:39.040Z,1019.93
2023-05-21T07:35:39.323Z,1019.91
2023-05-21T07:36:39.402Z,1019.88
2023-05-21T07:37:39.628Z,1019.90
2023-05-21T07:38:39.719Z,1019.89
2023-05-21T07:39:39.894Z,1019.89
2023-05-21T07:40:40.089Z,1019.90
2023-05-21T07:41:40.280Z,1019.88
2023-05-21T07:42:40.436Z,1019.84
2023-05-21T07:43:40.648Z,1019.88
2023-05-21T07:44:40.786Z,1019.88
2023-05-21T07:45:41.002Z,1019.94
2023-05-21T07:46:41.221Z,1019.90
2023-05-21T07:47:41.380Z,1019.90
2023-05-21T07:48:41.507Z,1019.89
2023-05-21T07:49:41.665Z,1019.88
2023-05-21T07:50:41.813Z,1019.83
2023-05-21T07:51:42.002Z,1019.81
2023-05-21T07:52:42.224Z,1019.85
2023-05-21T07:53:42.353Z,1019.81
2023-05-21T07:54:42.521Z,1019.79
2023-05-21T07:55:42.678Z,1019.76
2023-05-21T07:56:42.850Z,1019.76
2023-05-21T07:57:43.030Z,1019.77
2023-05-21T07:58:43.219Z,1019.75
2023-05-21T07:59:43.397Z,1019.74
2023-05-21T08:00:43.576Z,1019.67
2023-05-21T08:01:43.757Z,1019.69
2023-05-21T08:02:44.066Z,1019.71
2023-05-21T08:03:44.278Z,1019.72
2023-05-21T08:04:44.340Z,1019.66
2023-05-21T08:05:44.490Z,1019.64
2023-05-21T08:06:44.644Z,1019.67
2023-05-21T08:07:44.854Z,1019.67
2023-05-21T08:08:44.991Z,1019.65
2023-05-21T08:09:45.161Z,1019.58
2023-05-21T08:10:45.363Z,1019.57
2023-05-21T08:11:45.532Z,1019.58
2023-05-21T08:12:45.701Z,1019.57
2023-05-21T08:13:45.878Z,1019.55
2023-05-21T08:14:46.022Z,1019.61
2023-05-21T08:15:46.210Z,1019.58
2023-05-21T08:16:46.506Z,1019.61
2023-05-21T08:17:46.624Z,1019.52
2023-05-21T08:18:46.784Z,1019.62
2023-05-21T08:19:46.896Z,1019.64
2023-05-21T08:20:47.056Z,1019.64
2023-05-21T08:21:47.240Z,1019.66
2023-05-21T08:22:47.437Z,1019.65
2023-05-21T08:23:47.580Z,1019.63
2023-05-21T08:24:47.755Z,1019.63
2023-05-21T08:25:47.947Z,1019.61
2023-05-21T08:26:48.101Z,1019.60
2023-05-21T08:27:49.925Z,1019.54
2023-05-21T08:28:48.440Z,1019.59
2023-05-21T08:29:48.636Z,1019.63
2023-05-21T08:30:48.853Z,1019.66
2023-05-21T08:31:49.073Z,1019.62
2023-05-21T08:32:49.220Z,1019.58
2023-05-21T08:33:49.331Z,1019.56
2023-05-21T08:34:49.509Z,1019.59
2023-05-21T08:35:49.730Z,1019.55
2023-05-21T08:36:49.867Z,1019.59
2023-05-21T08:37:50.045Z,1019.59
2023-05-21T08:38:50.293Z,1019.54
2023-05-21T08:39:50.402Z,1019.59
2023-05-21T08:40:50.590Z,1019.59
2023-05-21T08:41:50.783Z,1019.63
2023-05-21T08:42:50.932Z,1019.59
2023-05-21T08:43:52.546Z,1019.63
2023-05-21T08:44:51.277Z,1019.65
2023-05-21T08:45:51.470Z,1019.63
2023-05-21T08:46:51.616Z,1019.67
2023-05-21T08:47:51.850Z,1019.59
2023-05-21T08:48:51.949Z,1019.60
2023-05-21T08:49:52.136Z,1019.58
2023-05-21T08:50:52.350Z,1019.61
2023-05-21T08:51:52.508Z,1019.54
2023-05-21T08:52:52.674Z,1019.58
2023-05-21T08:53:52.838Z,1019.59
2023-05-21T08:54:52.988Z,1019.59
2023-05-21T08:55:53.189Z,1019.58
2023-05-21T08:56:53.352Z,1019.58
2023-05-21T08:57:53.517Z,1019.60
2023-05-21T08:58:53.681Z,1019.54
2023-05-21T08:59:53.862Z,1019.52
2023-05-21T09:00:54.062Z,1019.51
2023-05-21T09:01:54.209Z,1019.50
2023-05-21T09:02:54.717Z,1019.46
2023-05-21T09:03:59.094Z,1019.48
2023-05-21T09:04:55.737Z,1019.50
2023-05-21T09:05:54.926Z,1019.50
2023-05-21T09:06:55.073Z,1019.53
2023-05-21T09:07:55.262Z,1019.48
2023-05-21T09:08:55.400Z,1019.51
2023-05-21T09:09:55.590Z,1019.50
2023-05-21T09:10:55.746Z,1019.47
2023-05-21T09:11:55.980Z,1019.50
2023-05-21T09:12:56.111Z,1019.53
2023-05-21T09:13:56.302Z,1019.44
2023-05-21T09:14:56.500Z,1019.46
2023-05-21T09:15:56.662Z,1019.47
2023-05-21T09:16:56.995Z,1019.42
2023-05-21T09:17:57.097Z,1019.43
2023-05-21T09:18:57.293Z,1019.43
2023-05-21T09:19:57.420Z,1019.37
2023-05-21T09:20:57.628Z,1019.43
2023-05-21T09:21:57.773Z,1019.41
2023-05-21T09:22:57.908Z,1019.41
2023-05-21T09:23:58.109Z,1019.39
2023-05-21T09:24:58.252Z,1019.40
2023-05-21T09:25:58.446Z,1019.45
2023-05-21T09:26:58.597Z,1019.38
2023-05-21T09:27:58.794Z,1019.37
2023-05-21T09:28:58.962Z,1019.36
2023-05-21T09:29:59.120Z,1019.37
2023-05-21T09:30:59.326Z,1019.37
2023-05-21T09:31:59.529Z,1019.38
2023-05-21T09:32:59.768Z,1019.35
2023-05-21T09:33:59.851Z,1019.34
2023-05-21T09:35:00.021Z,1019.24
2023-05-21T09:36:00.210Z,1019.30
2023-05-21T09:37:00.395Z,1019.30
2023-05-21T09:38:00.592Z,1019.30
2023-05-21T09:39:00.742Z,1019.23
2023-05-21T09:40:00.928Z,1019.25
2023-05-21T09:41:01.102Z,1019.23
2023-05-21T09:42:01.275Z,1019.21
2023-05-21T09:43:01.405Z,1019.17
2023-05-21T09:44:01.621Z,1019.19
2023-05-21T09:45:01.782Z,1019.18
2023-05-21T09:46:02.393Z,1019.31
2023-05-21T09:47:02.103Z,1019.25
2023-05-21T09:48:02.322Z,1019.16
2023-05-21T09:49:02.428Z,1019.19
2023-05-21T09:50:02.619Z,1019.16
2023-05-21T09:51:02.773Z,1019.12
2023-05-21T09:52:02.971Z,1019.09
2023-05-21T09:53:03.127Z,1019.08
2023-05-21T09:54:03.329Z,1019.05
2023-05-21T09:55:03.475Z,1019.11
2023-05-21T09:56:03.667Z,1019.11
2023-05-21T09:57:03.845Z,1019.09
2023-05-21T09:58:03.992Z,1019.03
2023-05-21T09:59:04.210Z,1019.10
2023-05-21T10:00:04.366Z,1019.08
2023-05-21T10:01:04.538Z,1019.07
2023-05-21T10:02:04.750Z,1018.96
2023-05-21T10:03:04.924Z,1018.97
2023-05-21T10:04:05.059Z,1018.98
2023-05-21T10:05:05.197Z,1018.96
2023-05-21T10:06:05.405Z,1018.96
2023-05-21T10:07:05.545Z,1018.89
2023-05-21T10:08:05.734Z,1018.96
2023-05-21T10:09:06.090Z,1018.97
2023-05-21T10:10:06.045Z,1019.01
2023-05-21T10:11:06.253Z,1019.00
2023-05-21T10:12:06.400Z,1018.97
2023-05-21T10:13:06.581Z,1018.97
2023-05-21T10:14:06.751Z,1019.00
2023-05-21T10:15:06.984Z,1018.99
2023-05-21T10:16:07.174Z,1018.94
2023-05-21T10:17:07.288Z,1018.94
2023-05-21T10:18:07.585Z,1019.03
2023-05-21T10:19:07.664Z,1019.01
2023-05-21T10:20:07.833Z,1018.95
2023-05-21T10:21:07.966Z,1019.12
2023-05-21T10:22:08.133Z,1018.90
2023-05-21T10:23:08.307Z,1018.87
2023-05-21T10:24:08.460Z,1018.85
2023-05-21T10:25:08.683Z,1018.81
2023-05-21T10:26:08.842Z,1018.91
2023-05-21T10:27:09.001Z,1018.85
2023-05-21T10:28:09.164Z,1018.86
2023-05-21T10:29:09.370Z,1018.83
2023-05-21T10:30:09.531Z,1018.83
2023-05-21T10:31:09.741Z,1018.82
2023-05-21T10:32:09.889Z,1018.88
2023-05-21T10:33:10.092Z,1018.80
2023-05-21T10:34:10.216Z,1018.77
2023-05-21T10:35:10.414Z,1018.87
2023-05-21T10:36:10.570Z,1018.79
2023-05-21T10:37:10.772Z,1018.82
2023-05-21T10:38:10.933Z,1018.83
2023-05-21T10:39:11.148Z,1018.79
2023-05-21T10:40:11.289Z,1018.78
2023-05-21T10:41:11.465Z,1018.78
2023-05-21T10:42:11.614Z,1018.75
2023-05-21T10:43:11.797Z,1018.70
2023-05-21T10:44:11.968Z,1018.69
2023-05-21T10:45:12.129Z,1018.68
2023-05-21T10:46:12.407Z,1018.64
2023-05-21T10:47:12.439Z,1018.67
2023-05-21T10:48:12.682Z,1018.71
2023-05-21T10:49:12.785Z,1018.67
2023-05-21T10:50:12.972Z,1018.71
2023-05-21T10:51:13.162Z,1018.70
2023-05-21T10:52:13.401Z,1018.70
2023-05-21T10:53:13.548Z,1018.73
2023-05-21T10:54:13.678Z,1018.73
2023-05-21T10:55:13.863Z,1018.66
2023-05-21T10:56:14.009Z,1018.63
2023-05-21T10:57:14.238Z,1018.70
2023-05-21T10:58:14.381Z,1018.70
2023-05-21T10:59:14.536Z,1018.60
2023-05-21T11:00:14.722Z,1018.59
2023-05-21T11:01:14.926Z,1018.59
2023-05-21T11:02:15.100Z,1018.58
2023-05-21T11:03:15.315Z,1018.59
2023-05-21T11:04:15.407Z,1018.61
2023-05-21T11:05:15.620Z,1018.69
2023-05-21T11:06:15.777Z,1018.66
2023-05-21T11:07:15.955Z,1018.58
2023-05-21T11:08:16.116Z,1018.57
2023-05-21T11:09:16.318Z,1018.68
2023-05-21T11:10:16.479Z,1018.70
2023-05-21T11:11:16.680Z,1018.62
2023-05-21T11:12:16.864Z,1018.65
2023-05-21T11:13:17.078Z,1018.61
2023-05-21T11:14:18.741Z,1018.58
2023-05-21T11:15:17.507Z,1018.55
2023-05-21T11:16:17.564Z,1018.59
2023-05-21T11:17:17.748Z,1018.64
2023-05-21T11:18:17.913Z,1018.59
2023-05-21T11:19:18.121Z,1018.61
2023-05-21T11:20:18.289Z,1018.60
2023-05-21T11:21:18.478Z,1018.61
2023-05-21T11:22:18.603Z,1018.58
2023-05-21T11:23:18.771Z,1018.56
2023-05-21T11:24:18.940Z,1018.58
2023-05-21T11:25:19.121Z,1018.51
2023-05-21T11:26:19.308Z,1018.53
2023-05-21T11:27:19.497Z,1018.53
2023-05-21T11:28:19.656Z,1018.59
2023-05-21T11:29:19.824Z,1018.52
2023-05-21T11:30:20.015Z,1018.54
2023-05-21T11:31:20.229Z,1018.52
2023-05-21T11:32:20.334Z,1018.44
2023-05-21T11:33:20.548Z,1018.63
2023-05-21T11:34:20.699Z,1018.59
2023-05-21T11:35:20.895Z,1018.59
2023-05-21T11:36:21.053Z,1018.58
2023-05-21T11:37:21.220Z,1018.55
2023-05-21T11:38:21.406Z,1018.53
2023-05-21T11:39:21.633Z,1018.51
2023-05-21T11:40:21.786Z,1018.52
2023-05-21T11:41:21.951Z,1018.51
2023-05-21T11:42:22.128Z,1018.48
2023-05-21T11:43:22.304Z,1018.47
2023-05-21T11:44:22.505Z,1018.54
2023-05-21T11:45:22.693Z,1018.44
2023-05-21T11:46:22.827Z,1018.43
2023-05-21T11:47:23.031Z,1018.45
2023-05-21T11:48:24.451Z,1018.49
2023-05-21T11:49:23.315Z,1018.47
2023-05-21T11:50:23.539Z,1018.46
2023-05-21T11:51:23.657Z,1018.47
2023-05-21T11:52:23.822Z,1018.51
2023-05-21T11:53:23.994Z,1018.49
2023-05-21T11:54:24.200Z,1018.54
2023-05-21T11:55:24.335Z,1018.54
2023-05-21T11:56:24.497Z,1018.55
2023-05-21T11:57:24.686Z,1018.47
2023-05-21T11:58:24.894Z,1018.46
2023-05-21T11:59:25.075Z,1018.44
2023-05-21T12:00:25.227Z,1018.51
2023-05-21T12:01:25.397Z,1018.54
2023-05-21T12:02:25.630Z,1018.51
2023-05-21T12:03:25.819Z,1018.52
2023-05-21T12:04:25.924Z,1018.52
2023-05-21T12:05:26.082Z,1018.40
2023-05-21T12:06:26.286Z,1018.46
2023-05-21T12:07:26.445Z,1018.51